sensor_id;sensor_type;location;lat;lon;timestamp;P1;durP1;ratioP1;P2;durP2;ratioP2
56637;SDS011;42507;51.982;20.140;2022-07-23T00:02:11;13.95;;;11.57;;
56637;SDS011;42507;51.982;20.140;2022-07-23T00:04:38;13.40;;;11.28;;
56637;SDS011;42507;51.982;20.140;2022-07-23T00:07:04;13.80;;;10.03;;
56637;SDS011;42507;51.982;20.140;2022-07-23T00:09:31;13.55;;;10.98;;
56637;SDS011;42507;51.982;20.140;2022-07-23T00:11:57;15.08;;;11.38;;
56637;SDS011;42507;51.982;20.140;2022-07-23T00:14:23;12.65;;;11.33;;
56637;SDS011;42507;51.982;20.140;2022-07-23T00:16:50;12.37;;;11.05;;
56637;SDS011;42507;51.982;20.140;2022-07-23T00:19:16;13.65;;;10.43;;
56637;SDS011;42507;51.982;20.140;2022-07-23T00:21:42;12.58;;;11.28;;
56637;SDS011;42507;51.982;20.140;2022-07-23T00:24:08;16.73;;;12.82;;
56637;SDS011;42507;51.982;20.140;2022-07-23T00:26:34;18.02;;;13.90;;
56637;SDS011;42507;51.982;20.140;2022-07-23T00:29:00;14.33;;;10.65;;
56637;SDS011;42507;51.982;20.140;2022-07-23T00:31:26;11.70;;;10.15;;
56637;SDS011;42507;51.982;20.140;2022-07-23T00:33:53;15.75;;;11.53;;
56637;SDS011;42507;51.982;20.140;2022-07-23T00:36:23;12.33;;;9.85;;
56637;SDS011;42507;51.982;20.140;2022-07-23T00:38:49;16.62;;;12.23;;
56637;SDS011;42507;51.982;20.140;2022-07-23T00:41:15;14.87;;;13.32;;
56637;SDS011;42507;51.982;20.140;2022-07-23T00:43:42;19.45;;;13.05;;
56637;SDS011;42507;51.982;20.140;2022-07-23T00:46:08;16.45;;;13.65;;
56637;SDS011;42507;51.982;20.140;2022-07-23T00:48:34;17.85;;;12.85;;
56637;SDS011;42507;51.982;20.140;2022-07-23T00:51:00;14.80;;;12.53;;
56637;SDS011;42507;51.982;20.140;2022-07-23T00:53:28;13.70;;;10.93;;
56637;SDS011;42507;51.982;20.140;2022-07-23T00:55:54;15.28;;;11.08;;
56637;SDS011;42507;51.982;20.140;2022-07-23T00:58:20;12.78;;;11.12;;
56637;SDS011;42507;51.982;20.140;2022-07-23T01:00:47;13.93;;;10.48;;
56637;SDS011;42507;51.982;20.140;2022-07-23T01:03:13;12.73;;;10.90;;
56637;SDS011;42507;51.982;20.140;2022-07-23T01:05:39;16.15;;;13.18;;
56637;SDS011;42507;51.982;20.140;2022-07-23T01:08:05;15.75;;;11.78;;
56637;SDS011;42507;51.982;20.140;2022-07-23T01:10:32;37.40;;;11.60;;
56637;SDS011;42507;51.982;20.140;2022-07-23T01:13:05;14.07;;;10.28;;
56637;SDS011;42507;51.982;20.140;2022-07-23T01:15:35;13.78;;;10.90;;
56637;SDS011;42507;51.982;20.140;2022-07-23T01:18:04;11.80;;;10.43;;
56637;SDS011;42507;51.982;20.140;2022-07-23T01:20:32;13.13;;;10.55;;
56637;SDS011;42507;51.982;20.140;2022-07-23T01:22:58;14.55;;;10.85;;
56637;SDS011;42507;51.982;20.140;2022-07-23T01:25:25;16.60;;;12.00;;
56637;SDS011;42507;51.982;20.140;2022-07-23T01:27:56;17.67;;;12.60;;
56637;SDS011;42507;51.982;20.140;2022-07-23T01:30:22;16.80;;;12.50;;
56637;SDS011;42507;51.982;20.140;2022-07-23T01:32:49;15.20;;;12.58;;
56637;SDS011;42507;51.982;20.140;2022-07-23T01:35:15;14.73;;;12.07;;
56637;SDS011;42507;51.982;20.140;2022-07-23T01:37:42;13.20;;;11.63;;
56637;SDS011;42507;51.982;20.140;2022-07-23T01:40:09;13.88;;;11.57;;
56637;SDS011;42507;51.982;20.140;2022-07-23T01:42:36;16.07;;;13.25;;
56637;SDS011;42507;51.982;20.140;2022-07-23T01:45:03;17.40;;;13.83;;
56637;SDS011;42507;51.982;20.140;2022-07-23T01:47:30;15.03;;;12.78;;
56637;SDS011;42507;51.982;20.140;2022-07-23T01:49:56;17.70;;;14.33;;
56637;SDS011;42507;51.982;20.140;2022-07-23T01:52:43;17.82;;;14.78;;
56637;SDS011;42507;51.982;20.140;2022-07-23T01:55:09;17.25;;;14.95;;
56637;SDS011;42507;51.982;20.140;2022-07-23T01:57:37;16.67;;;13.45;;
56637;SDS011;42507;51.982;20.140;2022-07-23T02:00:05;15.83;;;13.50;;
56637;SDS011;42507;51.982;20.140;2022-07-23T02:02:34;14.03;;;12.23;;
56637;SDS011;42507;51.982;20.140;2022-07-23T02:05:01;14.95;;;11.95;;
56637;SDS011;42507;51.982;20.140;2022-07-23T02:07:27;15.83;;;12.98;;
56637;SDS011;42507;51.982;20.140;2022-07-23T02:09:54;15.40;;;12.58;;
56637;SDS011;42507;51.982;20.140;2022-07-23T02:12:20;15.32;;;13.62;;
56637;SDS011;42507;51.982;20.140;2022-07-23T02:14:46;14.47;;;12.35;;
56637;SDS011;42507;51.982;20.140;2022-07-23T02:17:13;17.87;;;15.30;;
56637;SDS011;42507;51.982;20.140;2022-07-23T02:19:39;17.17;;;13.60;;
56637;SDS011;42507;51.982;20.140;2022-07-23T02:22:05;18.20;;;15.03;;
56637;SDS011;42507;51.982;20.140;2022-07-23T02:24:31;19.20;;;14.68;;
56637;SDS011;42507;51.982;20.140;2022-07-23T02:26:57;15.15;;;13.53;;
56637;SDS011;42507;51.982;20.140;2022-07-23T02:29:23;16.20;;;14.28;;
56637;SDS011;42507;51.982;20.140;2022-07-23T02:31:49;16.73;;;12.98;;
56637;SDS011;42507;51.982;20.140;2022-07-23T02:34:16;16.65;;;13.75;;
56637;SDS011;42507;51.982;20.140;2022-07-23T02:36:42;17.42;;;14.13;;
56637;SDS011;42507;51.982;20.140;2022-07-23T02:39:09;24.30;;;16.77;;
56637;SDS011;42507;51.982;20.140;2022-07-23T02:41:35;17.75;;;14.80;;
56637;SDS011;42507;51.982;20.140;2022-07-23T02:44:01;18.67;;;15.00;;
56637;SDS011;42507;51.982;20.140;2022-07-23T02:46:28;18.57;;;14.78;;
56637;SDS011;42507;51.982;20.140;2022-07-23T02:48:55;28.62;;;24.45;;
56637;SDS011;42507;51.982;20.140;2022-07-23T02:51:21;16.80;;;14.98;;
56637;SDS011;42507;51.982;20.140;2022-07-23T02:53:49;20.95;;;17.12;;
56637;SDS011;42507;51.982;20.140;2022-07-23T02:56:15;19.42;;;14.60;;
56637;SDS011;42507;51.982;20.140;2022-07-23T02:58:41;15.03;;;13.30;;
56637;SDS011;42507;51.982;20.140;2022-07-23T03:01:07;17.05;;;13.98;;
56637;SDS011;42507;51.982;20.140;2022-07-23T03:03:33;17.02;;;13.75;;
56637;SDS011;42507;51.982;20.140;2022-07-23T03:05:59;16.40;;;12.90;;
56637;SDS011;42507;51.982;20.140;2022-07-23T03:08:25;17.20;;;13.58;;
56637;SDS011;42507;51.982;20.140;2022-07-23T03:10:52;18.57;;;14.23;;
56637;SDS011;42507;51.982;20.140;2022-07-23T03:13:18;16.35;;;13.58;;
56637;SDS011;42507;51.982;20.140;2022-07-23T03:15:45;18.90;;;14.90;;
56637;SDS011;42507;51.982;20.140;2022-07-23T03:18:11;17.60;;;15.40;;
56637;SDS011;42507;51.982;20.140;2022-07-23T03:20:37;16.23;;;14.53;;
56637;SDS011;42507;51.982;20.140;2022-07-23T03:23:03;17.10;;;14.23;;
56637;SDS011;42507;51.982;20.140;2022-07-23T03:25:30;18.32;;;15.75;;
56637;SDS011;42507;51.982;20.140;2022-07-23T03:27:56;18.73;;;15.98;;
56637;SDS011;42507;51.982;20.140;2022-07-23T03:30:24;18.48;;;13.62;;
56637;SDS011;42507;51.982;20.140;2022-07-23T03:32:51;18.90;;;16.75;;
56637;SDS011;42507;51.982;20.140;2022-07-23T03:35:17;19.92;;;16.15;;
56637;SDS011;42507;51.982;20.140;2022-07-23T03:37:45;17.77;;;15.15;;
56637;SDS011;42507;51.982;20.140;2022-07-23T03:40:11;17.92;;;13.93;;
56637;SDS011;42507;51.982;20.140;2022-07-23T03:42:38;15.80;;;13.05;;
56637;SDS011;42507;51.982;20.140;2022-07-23T03:45:06;18.23;;;14.33;;
56637;SDS011;42507;51.982;20.140;2022-07-23T03:47:32;20.72;;;16.25;;
56637;SDS011;42507;51.982;20.140;2022-07-23T03:49:58;16.55;;;14.40;;
56637;SDS011;42507;51.982;20.140;2022-07-23T03:52:24;20.65;;;14.53;;
56637;SDS011;42507;51.982;20.140;2022-07-23T03:54:51;19.75;;;15.18;;
56637;SDS011;42507;51.982;20.140;2022-07-23T03:57:17;13.32;;;10.93;;
56637;SDS011;42507;51.982;20.140;2022-07-23T03:59:43;16.75;;;12.35;;
56637;SDS011;42507;51.982;20.140;2022-07-23T04:02:09;18.73;;;15.60;;
56637;SDS011;42507;51.982;20.140;2022-07-23T04:04:36;21.42;;;17.45;;
56637;SDS011;42507;51.982;20.140;2022-07-23T04:07:02;18.80;;;15.70;;
56637;SDS011;42507;51.982;20.140;2022-07-23T04:09:28;22.73;;;16.82;;
56637;SDS011;42507;51.982;20.140;2022-07-23T04:11:55;20.23;;;15.80;;
56637;SDS011;42507;51.982;20.140;2022-07-23T04:14:21;20.68;;;15.25;;
56637;SDS011;42507;51.982;20.140;2022-07-23T04:16:47;19.27;;;16.02;;
56637;SDS011;42507;51.982;20.140;2022-07-23T04:19:13;20.37;;;14.63;;
56637;SDS011;42507;51.982;20.140;2022-07-23T04:21:42;20.80;;;17.15;;
56637;SDS011;42507;51.982;20.140;2022-07-23T04:24:08;20.75;;;16.73;;
56637;SDS011;42507;51.982;20.140;2022-07-23T04:26:35;22.87;;;16.87;;
56637;SDS011;42507;51.982;20.140;2022-07-23T04:29:02;27.82;;;19.25;;
56637;SDS011;42507;51.982;20.140;2022-07-23T04:31:28;22.67;;;18.50;;
56637;SDS011;42507;51.982;20.140;2022-07-23T04:33:54;22.15;;;18.70;;
56637;SDS011;42507;51.982;20.140;2022-07-23T04:36:20;20.30;;;14.70;;
56637;SDS011;42507;51.982;20.140;2022-07-23T04:38:46;23.50;;;16.60;;
56637;SDS011;42507;51.982;20.140;2022-07-23T04:41:13;27.55;;;18.35;;
56637;SDS011;42507;51.982;20.140;2022-07-23T04:43:39;20.95;;;16.60;;
56637;SDS011;42507;51.982;20.140;2022-07-23T04:46:05;21.27;;;15.83;;
56637;SDS011;42507;51.982;20.140;2022-07-23T04:48:33;20.62;;;16.32;;
56637;SDS011;42507;51.982;20.140;2022-07-23T04:51:01;21.15;;;16.00;;
56637;SDS011;42507;51.982;20.140;2022-07-23T04:53:28;18.37;;;13.70;;
56637;SDS011;42507;51.982;20.140;2022-07-23T04:55:56;22.98;;;15.60;;
56637;SDS011;42507;51.982;20.140;2022-07-23T04:58:22;17.05;;;14.85;;
56637;SDS011;42507;51.982;20.140;2022-07-23T05:00:49;18.50;;;14.40;;
56637;SDS011;42507;51.982;20.140;2022-07-23T05:03:15;22.25;;;15.48;;
56637;SDS011;42507;51.982;20.140;2022-07-23T05:05:42;18.60;;;14.63;;
56637;SDS011;42507;51.982;20.140;2022-07-23T05:08:10;19.70;;;17.15;;
56637;SDS011;42507;51.982;20.140;2022-07-23T05:10:38;17.15;;;15.28;;
56637;SDS011;42507;51.982;20.140;2022-07-23T05:13:04;23.77;;;16.35;;
56637;SDS011;42507;51.982;20.140;2022-07-23T05:15:30;21.45;;;16.90;;
56637;SDS011;42507;51.982;20.140;2022-07-23T05:17:56;19.73;;;15.95;;
56637;SDS011;42507;51.982;20.140;2022-07-23T05:20:22;18.07;;;15.63;;
56637;SDS011;42507;51.982;20.140;2022-07-23T05:22:48;19.98;;;14.85;;
56637;SDS011;42507;51.982;20.140;2022-07-23T05:25:15;16.60;;;14.80;;
56637;SDS011;42507;51.982;20.140;2022-07-23T05:27:41;24.25;;;15.88;;
56637;SDS011;42507;51.982;20.140;2022-07-23T05:30:08;15.95;;;13.62;;
56637;SDS011;42507;51.982;20.140;2022-07-23T05:32:36;19.05;;;15.05;;
56637;SDS011;42507;51.982;20.140;2022-07-23T05:35:05;17.10;;;14.50;;
56637;SDS011;42507;51.982;20.140;2022-07-23T05:37:34;19.40;;;15.85;;
56637;SDS011;42507;51.982;20.140;2022-07-23T05:40:01;18.17;;;14.95;;
56637;SDS011;42507;51.982;20.140;2022-07-23T05:42:31;17.00;;;12.30;;
56637;SDS011;42507;51.982;20.140;2022-07-23T05:44:57;15.30;;;12.88;;
56637;SDS011;42507;51.982;20.140;2022-07-23T05:47:24;15.55;;;13.38;;
56637;SDS011;42507;51.982;20.140;2022-07-23T05:49:50;19.77;;;16.00;;
56637;SDS011;42507;51.982;20.140;2022-07-23T05:52:24;18.10;;;15.10;;
56637;SDS011;42507;51.982;20.140;2022-07-23T05:54:58;20.90;;;14.87;;
56637;SDS011;42507;51.982;20.140;2022-07-23T05:57:24;15.40;;;12.75;;
56637;SDS011;42507;51.982;20.140;2022-07-23T05:59:50;17.25;;;14.00;;
56637;SDS011;42507;51.982;20.140;2022-07-23T06:02:17;19.02;;;15.10;;
56637;SDS011;42507;51.982;20.140;2022-07-23T06:04:43;15.78;;;14.05;;
56637;SDS011;42507;51.982;20.140;2022-07-23T06:07:11;20.02;;;14.35;;
56637;SDS011;42507;51.982;20.140;2022-07-23T06:09:37;15.50;;;13.22;;
56637;SDS011;42507;51.982;20.140;2022-07-23T06:12:04;17.62;;;13.50;;
56637;SDS011;42507;51.982;20.140;2022-07-23T06:14:31;19.40;;;12.28;;
56637;SDS011;42507;51.982;20.140;2022-07-23T06:16:58;14.05;;;11.95;;
56637;SDS011;42507;51.982;20.140;2022-07-23T06:19:26;14.18;;;11.75;;
56637;SDS011;42507;51.982;20.140;2022-07-23T06:21:52;16.87;;;12.80;;
56637;SDS011;42507;51.982;20.140;2022-07-23T06:24:18;14.30;;;10.38;;
56637;SDS011;42507;51.982;20.140;2022-07-23T06:26:45;13.43;;;10.68;;
56637;SDS011;42507;51.982;20.140;2022-07-23T06:29:11;12.98;;;11.68;;
56637;SDS011;42507;51.982;20.140;2022-07-23T06:31:37;13.35;;;10.85;;
56637;SDS011;42507;51.982;20.140;2022-07-23T06:34:03;12.28;;;9.40;;
56637;SDS011;42507;51.982;20.140;2022-07-23T06:36:29;12.65;;;10.08;;
56637;SDS011;42507;51.982;20.140;2022-07-23T06:38:55;12.63;;;10.98;;
56637;SDS011;42507;51.982;20.140;2022-07-23T06:41:21;13.10;;;10.50;;
56637;SDS011;42507;51.982;20.140;2022-07-23T06:43:48;13.75;;;12.35;;
56637;SDS011;42507;51.982;20.140;2022-07-23T06:46:15;11.43;;;10.32;;
56637;SDS011;42507;51.982;20.140;2022-07-23T06:48:42;13.32;;;11.55;;
56637;SDS011;42507;51.982;20.140;2022-07-23T06:51:08;13.93;;;12.40;;
56637;SDS011;42507;51.982;20.140;2022-07-23T06:53:34;13.55;;;12.15;;
56637;SDS011;42507;51.982;20.140;2022-07-23T06:56:00;11.83;;;10.68;;
56637;SDS011;42507;51.982;20.140;2022-07-23T06:58:26;13.40;;;10.15;;
56637;SDS011;42507;51.982;20.140;2022-07-23T07:00:52;12.63;;;11.33;;
56637;SDS011;42507;51.982;20.140;2022-07-23T07:03:19;11.50;;;10.38;;
56637;SDS011;42507;51.982;20.140;2022-07-23T07:05:45;11.43;;;10.32;;
56637;SDS011;42507;51.982;20.140;2022-07-23T07:08:11;11.75;;;10.00;;
56637;SDS011;42507;51.982;20.140;2022-07-23T07:10:37;9.70;;;8.73;;
56637;SDS011;42507;51.982;20.140;2022-07-23T07:13:04;10.15;;;8.33;;
56637;SDS011;42507;51.982;20.140;2022-07-23T07:15:30;8.58;;;7.67;;
56637;SDS011;42507;51.982;20.140;2022-07-23T07:17:56;10.82;;;8.60;;
56637;SDS011;42507;51.982;20.140;2022-07-23T07:20:22;8.83;;;8.03;;
56637;SDS011;42507;51.982;20.140;2022-07-23T07:22:49;11.57;;;7.50;;
56637;SDS011;42507;51.982;20.140;2022-07-23T07:25:15;8.78;;;7.53;;
56637;SDS011;42507;51.982;20.140;2022-07-23T07:27:41;7.85;;;6.80;;
56637;SDS011;42507;51.982;20.140;2022-07-23T07:30:09;7.22;;;6.47;;
56637;SDS011;42507;51.982;20.140;2022-07-23T07:32:36;7.40;;;6.65;;
56637;SDS011;42507;51.982;20.140;2022-07-23T07:35:03;10.58;;;7.03;;
56637;SDS011;42507;51.982;20.140;2022-07-23T07:37:30;8.63;;;6.90;;
56637;SDS011;42507;51.982;20.140;2022-07-23T07:39:56;8.15;;;6.83;;
56637;SDS011;42507;51.982;20.140;2022-07-23T07:42:22;9.15;;;7.40;;
56637;SDS011;42507;51.982;20.140;2022-07-23T07:44:48;8.30;;;7.40;;
56637;SDS011;42507;51.982;20.140;2022-07-23T07:47:14;8.85;;;8.05;;
56637;SDS011;42507;51.982;20.140;2022-07-23T07:49:41;9.30;;;8.45;;
56637;SDS011;42507;51.982;20.140;2022-07-23T07:52:08;12.88;;;9.45;;
56637;SDS011;42507;51.982;20.140;2022-07-23T07:54:35;8.25;;;7.47;;
56637;SDS011;42507;51.982;20.140;2022-07-23T07:57:04;8.18;;;7.35;;
56637;SDS011;42507;51.982;20.140;2022-07-23T07:59:30;8.85;;;7.95;;
56637;SDS011;42507;51.982;20.140;2022-07-23T08:01:56;9.55;;;8.60;;
56637;SDS011;42507;51.982;20.140;2022-07-23T08:04:22;9.03;;;8.05;;
56637;SDS011;42507;51.982;20.140;2022-07-23T08:06:48;10.70;;;8.50;;
56637;SDS011;42507;51.982;20.140;2022-07-23T08:09:14;11.18;;;8.85;;
56637;SDS011;42507;51.982;20.140;2022-07-23T08:11:41;9.08;;;8.28;;
56637;SDS011;42507;51.982;20.140;2022-07-23T08:14:07;9.28;;;8.15;;
56637;SDS011;42507;51.982;20.140;2022-07-23T08:16:34;10.13;;;8.50;;
56637;SDS011;42507;51.982;20.140;2022-07-23T08:19:01;8.08;;;7.28;;
56637;SDS011;42507;51.982;20.140;2022-07-23T08:21:27;9.43;;;8.53;;
56637;SDS011;42507;51.982;20.140;2022-07-23T08:23:53;8.30;;;7.53;;
56637;SDS011;42507;51.982;20.140;2022-07-23T08:26:19;12.28;;;7.58;;
56637;SDS011;42507;51.982;20.140;2022-07-23T08:28:45;8.68;;;7.78;;
56637;SDS011;42507;51.982;20.140;2022-07-23T08:31:11;9.10;;;7.78;;
56637;SDS011;42507;51.982;20.140;2022-07-23T08:33:38;9.03;;;8.13;;
56637;SDS011;42507;51.982;20.140;2022-07-23T08:36:04;9.73;;;7.67;;
56637;SDS011;42507;51.982;20.140;2022-07-23T08:38:31;9.03;;;7.75;;
56637;SDS011;42507;51.982;20.140;2022-07-23T08:41:05;10.10;;;7.83;;
56637;SDS011;42507;51.982;20.140;2022-07-23T08:43:38;7.05;;;6.35;;
56637;SDS011;42507;51.982;20.140;2022-07-23T08:46:06;9.23;;;7.90;;
56637;SDS011;42507;51.982;20.140;2022-07-23T08:48:33;9.35;;;7.37;;
56637;SDS011;42507;51.982;20.140;2022-07-23T08:51:02;8.25;;;7.45;;
56637;SDS011;42507;51.982;20.140;2022-07-23T08:53:32;8.40;;;7.10;;
56637;SDS011;42507;51.982;20.140;2022-07-23T08:56:01;9.98;;;7.53;;
56637;SDS011;42507;51.982;20.140;2022-07-23T08:58:29;7.50;;;6.80;;
56637;SDS011;42507;51.982;20.140;2022-07-23T09:00:56;9.10;;;7.10;;
56637;SDS011;42507;51.982;20.140;2022-07-23T09:03:24;7.83;;;7.10;;
56637;SDS011;42507;51.982;20.140;2022-07-23T09:05:56;8.58;;;7.05;;
56637;SDS011;42507;51.982;20.140;2022-07-23T09:08:25;6.67;;;6.00;;
56637;SDS011;42507;51.982;20.140;2022-07-23T09:11:05;7.97;;;7.28;;
56637;SDS011;42507;51.982;20.140;2022-07-23T09:13:35;8.70;;;6.78;;
56637;SDS011;42507;51.982;20.140;2022-07-23T09:16:10;8.03;;;6.58;;
56637;SDS011;42507;51.982;20.140;2022-07-23T09:18:40;9.85;;;7.62;;
56637;SDS011;42507;51.982;20.140;2022-07-23T09:21:21;12.25;;;7.55;;
56637;SDS011;42507;51.982;20.140;2022-07-23T09:23:56;8.58;;;6.87;;
56637;SDS011;42507;51.982;20.140;2022-07-23T09:26:34;7.10;;;6.25;;
56637;SDS011;42507;51.982;20.140;2022-07-23T09:29:17;7.37;;;6.33;;
56637;SDS011;42507;51.982;20.140;2022-07-23T09:31:54;7.75;;;6.37;;
56637;SDS011;42507;51.982;20.140;2022-07-23T09:34:24;8.27;;;7.43;;
56637;SDS011;42507;51.982;20.140;2022-07-23T09:37:13;7.55;;;6.85;;
56637;SDS011;42507;51.982;20.140;2022-07-23T09:39:42;7.22;;;6.50;;
56637;SDS011;42507;51.982;20.140;2022-07-23T09:42:25;13.45;;;7.25;;
56637;SDS011;42507;51.982;20.140;2022-07-23T09:44:53;7.63;;;6.90;;
56637;SDS011;42507;51.982;20.140;2022-07-23T09:47:23;7.62;;;6.87;;
56637;SDS011;42507;51.982;20.140;2022-07-23T09:50:08;7.78;;;6.95;;
56637;SDS011;42507;51.982;20.140;2022-07-23T09:52:42;8.25;;;6.35;;
56637;SDS011;42507;51.982;20.140;2022-07-23T09:55:13;7.00;;;5.78;;
56637;SDS011;42507;51.982;20.140;2022-07-23T09:57:41;6.75;;;6.12;;
56637;SDS011;42507;51.982;20.140;2022-07-23T10:00:11;7.97;;;6.70;;
56637;SDS011;42507;51.982;20.140;2022-07-23T10:02:38;7.95;;;6.80;;
56637;SDS011;42507;51.982;20.140;2022-07-23T10:05:26;7.12;;;6.42;;
56637;SDS011;42507;51.982;20.140;2022-07-23T10:08:11;7.10;;;6.50;;
56637;SDS011;42507;51.982;20.140;2022-07-23T10:10:52;7.70;;;6.53;;
56637;SDS011;42507;51.982;20.140;2022-07-23T10:13:21;7.92;;;6.97;;
56637;SDS011;42507;51.982;20.140;2022-07-23T10:16:05;10.23;;;7.50;;
56637;SDS011;42507;51.982;20.140;2022-07-23T10:18:33;7.83;;;7.05;;
56637;SDS011;42507;51.982;20.140;2022-07-23T10:21:00;6.70;;;6.10;;
56637;SDS011;42507;51.982;20.140;2022-07-23T10:23:39;7.10;;;6.40;;
56637;SDS011;42507;51.982;20.140;2022-07-23T10:26:10;7.15;;;6.55;;
56637;SDS011;42507;51.982;20.140;2022-07-23T10:34:37;8.28;;;7.28;;
56637;SDS011;42507;51.982;20.140;2022-07-23T10:37:16;9.08;;;7.53;;
56637;SDS011;42507;51.982;20.140;2022-07-23T10:40:08;8.18;;;7.00;;
56637;SDS011;42507;51.982;20.140;2022-07-23T10:42:43;8.25;;;7.15;;
56637;SDS011;42507;51.982;20.140;2022-07-23T10:45:28;7.83;;;7.05;;
56637;SDS011;42507;51.982;20.140;2022-07-23T10:53:54;8.30;;;7.12;;
56637;SDS011;42507;51.982;20.140;2022-07-23T10:59:26;7.22;;;6.53;;
56637;SDS011;42507;51.982;20.140;2022-07-23T11:01:52;8.00;;;7.20;;
56637;SDS011;42507;51.982;20.140;2022-07-23T11:04:19;7.70;;;7.00;;
56637;SDS011;42507;51.982;20.140;2022-07-23T11:09:25;8.10;;;7.25;;
56637;SDS011;42507;51.982;20.140;2022-07-23T11:20:23;7.00;;;6.22;;
56637;SDS011;42507;51.982;20.140;2022-07-23T11:22:51;8.40;;;7.60;;
56637;SDS011;42507;51.982;20.140;2022-07-23T11:28:09;9.00;;;7.72;;
56637;SDS011;42507;51.982;20.140;2022-07-23T11:30:47;9.25;;;6.47;;
56637;SDS011;42507;51.982;20.140;2022-07-23T11:35:43;8.68;;;6.80;;
56637;SDS011;42507;51.982;20.140;2022-07-23T11:38:19;7.20;;;6.60;;
56637;SDS011;42507;51.982;20.140;2022-07-23T11:40:48;7.97;;;7.17;;
56637;SDS011;42507;51.982;20.140;2022-07-23T11:43:21;9.15;;;7.05;;
56637;SDS011;42507;51.982;20.140;2022-07-23T11:45:48;6.70;;;6.12;;
56637;SDS011;42507;51.982;20.140;2022-07-23T11:48:19;7.20;;;6.50;;
56637;SDS011;42507;51.982;20.140;2022-07-23T11:50:48;11.40;;;7.40;;
56637;SDS011;42507;51.982;20.140;2022-07-23T11:53:32;5.78;;;5.17;;
56637;SDS011;42507;51.982;20.140;2022-07-23T11:56:03;7.35;;;6.67;;
56637;SDS011;42507;51.982;20.140;2022-07-23T11:58:33;7.47;;;6.78;;
56637;SDS011;42507;51.982;20.140;2022-07-23T12:01:01;8.53;;;7.35;;
56637;SDS011;42507;51.982;20.140;2022-07-23T12:03:49;8.28;;;7.40;;
56637;SDS011;42507;51.982;20.140;2022-07-23T12:06:17;9.88;;;8.10;;
56637;SDS011;42507;51.982;20.140;2022-07-23T12:08:43;8.03;;;7.28;;
56637;SDS011;42507;51.982;20.140;2022-07-23T12:11:11;9.65;;;7.75;;
56637;SDS011;42507;51.982;20.140;2022-07-23T12:13:38;9.38;;;7.60;;
56637;SDS011;42507;51.982;20.140;2022-07-23T12:16:05;9.28;;;7.40;;
56637;SDS011;42507;51.982;20.140;2022-07-23T12:18:33;8.33;;;6.95;;
56637;SDS011;42507;51.982;20.140;2022-07-23T12:21:03;7.78;;;6.80;;
56637;SDS011;42507;51.982;20.140;2022-07-23T12:23:31;7.92;;;7.12;;
56637;SDS011;42507;51.982;20.140;2022-07-23T12:26:00;7.50;;;6.78;;
56637;SDS011;42507;51.982;20.140;2022-07-23T12:28:31;7.58;;;6.78;;
56637;SDS011;42507;51.982;20.140;2022-07-23T12:30:58;9.03;;;7.08;;
56637;SDS011;42507;51.982;20.140;2022-07-23T12:36:03;8.00;;;7.12;;
56637;SDS011;42507;51.982;20.140;2022-07-23T12:38:37;7.35;;;6.67;;
56637;SDS011;42507;51.982;20.140;2022-07-23T12:41:14;8.28;;;7.40;;
56637;SDS011;42507;51.982;20.140;2022-07-23T12:43:41;5.60;;;5.20;;
56637;SDS011;42507;51.982;20.140;2022-07-23T12:51:22;7.53;;;6.72;;
56637;SDS011;42507;51.982;20.140;2022-07-23T12:53:57;10.72;;;7.05;;
56637;SDS011;42507;51.982;20.140;2022-07-23T12:56:36;14.87;;;7.28;;
56637;SDS011;42507;51.982;20.140;2022-07-23T12:59:05;9.53;;;6.62;;
56637;SDS011;42507;51.982;20.140;2022-07-23T13:01:40;7.65;;;6.22;;
56637;SDS011;42507;51.982;20.140;2022-07-23T13:04:21;7.67;;;6.97;;
56637;SDS011;42507;51.982;20.140;2022-07-23T13:06:52;7.78;;;7.08;;
56637;SDS011;42507;51.982;20.140;2022-07-23T13:09:28;7.78;;;7.05;;
56637;SDS011;42507;51.982;20.140;2022-07-23T13:11:53;7.47;;;6.62;;
56637;SDS011;42507;51.982;20.140;2022-07-23T13:14:21;9.38;;;6.95;;
56637;SDS011;42507;51.982;20.140;2022-07-23T13:16:49;9.13;;;7.00;;
56637;SDS011;42507;51.982;20.140;2022-07-23T13:19:16;8.58;;;6.92;;
56637;SDS011;42507;51.982;20.140;2022-07-23T13:21:43;8.23;;;6.30;;
56637;SDS011;42507;51.982;20.140;2022-07-23T13:24:10;7.90;;;7.10;;
56637;SDS011;42507;51.982;20.140;2022-07-23T13:26:37;8.63;;;7.80;;
56637;SDS011;42507;51.982;20.140;2022-07-23T13:29:06;7.42;;;6.70;;
56637;SDS011;42507;51.982;20.140;2022-07-23T13:31:32;8.85;;;7.45;;
56637;SDS011;42507;51.982;20.140;2022-07-23T13:33:59;8.28;;;7.50;;
56637;SDS011;42507;51.982;20.140;2022-07-23T13:36:25;10.05;;;4.25;;
56637;SDS011;42507;51.982;20.140;2022-07-23T13:38:51;13.95;;;3.42;;
56637;SDS011;42507;51.982;20.140;2022-07-23T13:41:18;15.68;;;4.12;;
56637;SDS011;42507;51.982;20.140;2022-07-23T13:43:44;16.65;;;4.53;;
56637;SDS011;42507;51.982;20.140;2022-07-23T13:46:10;8.95;;;3.65;;
56637;SDS011;42507;51.982;20.140;2022-07-23T13:48:37;9.20;;;3.67;;
56637;SDS011;42507;51.982;20.140;2022-07-23T13:51:03;7.00;;;4.20;;
56637;SDS011;42507;51.982;20.140;2022-07-23T13:53:29;11.93;;;3.58;;
56637;SDS011;42507;51.982;20.140;2022-07-23T13:55:56;5.87;;;3.47;;
56637;SDS011;42507;51.982;20.140;2022-07-23T13:58:22;12.73;;;3.80;;
56637;SDS011;42507;51.982;20.140;2022-07-23T14:00:50;11.18;;;4.42;;
56637;SDS011;42507;51.982;20.140;2022-07-23T14:03:19;9.73;;;5.37;;
56637;SDS011;42507;51.982;20.140;2022-07-23T14:05:49;8.55;;;5.85;;
56637;SDS011;42507;51.982;20.140;2022-07-23T14:08:16;7.75;;;4.50;;
56637;SDS011;42507;51.982;20.140;2022-07-23T14:10:42;9.23;;;6.92;;
56637;SDS011;42507;51.982;20.140;2022-07-23T14:13:10;7.12;;;4.83;;
56637;SDS011;42507;51.982;20.140;2022-07-23T14:15:36;6.33;;;5.45;;
56637;SDS011;42507;51.982;20.140;2022-07-23T14:18:03;9.85;;;5.20;;
56637;SDS011;42507;51.982;20.140;2022-07-23T14:20:30;6.22;;;5.17;;
56637;SDS011;42507;51.982;20.140;2022-07-23T14:22:56;5.65;;;4.05;;
56637;SDS011;42507;51.982;20.140;2022-07-23T14:25:24;6.62;;;5.92;;
56637;SDS011;42507;51.982;20.140;2022-07-23T14:27:50;5.80;;;4.67;;
56637;SDS011;42507;51.982;20.140;2022-07-23T14:30:16;9.85;;;5.60;;
56637;SDS011;42507;51.982;20.140;2022-07-23T14:32:42;6.00;;;4.67;;
56637;SDS011;42507;51.982;20.140;2022-07-23T14:35:08;8.83;;;6.67;;
56637;SDS011;42507;51.982;20.140;2022-07-23T14:37:35;8.75;;;6.67;;
56637;SDS011;42507;51.982;20.140;2022-07-23T14:40:01;10.00;;;8.13;;
56637;SDS011;42507;51.982;20.140;2022-07-23T14:42:28;14.07;;;7.78;;
56637;SDS011;42507;51.982;20.140;2022-07-23T14:44:55;12.00;;;9.15;;
56637;SDS011;42507;51.982;20.140;2022-07-23T14:47:21;9.00;;;6.60;;
56637;SDS011;42507;51.982;20.140;2022-07-23T14:49:48;13.00;;;6.92;;
56637;SDS011;42507;51.982;20.140;2022-07-23T14:52:15;9.60;;;7.40;;
56637;SDS011;42507;51.982;20.140;2022-07-23T14:54:42;11.30;;;7.92;;
56637;SDS011;42507;51.982;20.140;2022-07-23T14:57:08;10.03;;;7.37;;
56637;SDS011;42507;51.982;20.140;2022-07-23T14:59:35;8.80;;;5.37;;
56637;SDS011;42507;51.982;20.140;2022-07-23T15:02:01;10.35;;;7.85;;
56637;SDS011;42507;51.982;20.140;2022-07-23T15:04:28;11.60;;;7.62;;
56637;SDS011;42507;51.982;20.140;2022-07-23T15:06:54;8.30;;;7.30;;